Time;durP1;ratioP1;P1;durP2;ratioP2;P2;SDS_P1;SDS_P2;PMS_P1;PMS_P2;Temp;Humidity;BMP_temperature;BMP_pressure;BME280_temperature;BME280_humidity;BME280_pressure;Samples;Min_cycle;Max_cycle;Signal;HPM_P1;HPM_P2
2023/07/22 00:00:41;;;;;;;3.58;2.13;;;20.10;67.50;;;;;;4996364;28;20034;-66
2023/07/22 00:03:06;;;;;;;2.28;2.08;;;20.10;67.50;;;;;;4986790;28;20093;-66
2023/07/22 00:05:32;;;;;;;2.83;2.20;;;20.10;67.40;;;;;;4975340;28;20390;-66
2023/07/22 00:07:57;;;;;;;2.58;2.38;;;20.10;67.50;;;;;;4984935;28;20562;-65
2023/07/22 00:10:23;;;;;;;4.15;2.30;;;20.10;67.40;;;;;;4986169;28;20027;-66
2023/07/22 00:12:48;;;;;;;2.97;2.13;;;20.10;67.50;;;;;;4982306;28;20030;-66
2023/07/22 00:15:14;;;;;;;3.53;2.10;;;20.10;67.50;;;;;;4983423;28;20042;-66
2023/07/22 00:17:41;;;;;;;2.40;2.20;;;20.10;67.40;;;;;;4978209;28;20409;-66
2023/07/22 00:20:10;;;;;;;2.53;2.17;;;20.10;67.40;;;;;;4975542;28;20405;-65
2023/07/22 00:22:35;;;;;;;3.63;2.50;;;20.10;67.40;;;;;;4974220;28;20031;-65
2023/07/22 00:25:01;;;;;;;3.13;1.92;;;20.10;67.40;;;;;;4985349;28;20030;-65
2023/07/22 00:27:27;;;;;;;2.85;2.15;;;20.10;67.40;;;;;;4976738;28;20034;-63
2023/07/22 00:29:52;;;;;;;2.90;2.33;;;20.10;67.40;;;;;;4985524;28;20125;-65
2023/07/22 00:32:18;;;;;;;2.33;2.05;;;20.10;67.40;;;;;;4976262;28;20038;-64
2023/07/22 00:34:43;;;;;;;2.20;2.00;;;20.10;67.40;;;;;;4984483;28;20090;-65
2023/07/22 00:37:09;;;;;;;3.60;2.08;;;20.10;67.50;;;;;;4984018;28;20031;-67
2023/07/22 00:39:35;;;;;;;3.10;2.03;;;20.10;67.50;;;;;;4986603;28;20031;-67
2023/07/22 00:42:00;;;;;;;2.58;2.38;;;20.00;67.40;;;;;;4981586;28;20030;-66
2023/07/22 00:44:26;;;;;;;6.65;2.30;;;20.10;67.40;;;;;;4978222;28;20109;-67
2023/07/22 00:46:56;;;;;;;3.88;2.30;;;20.00;67.40;;;;;;4983313;28;20532;-68
2023/07/22 00:49:22;;;;;;;2.47;2.08;;;20.10;67.50;;;;;;4983604;28;20042;-67
2023/07/22 00:51:48;;;;;;;4.65;2.25;;;20.00;67.50;;;;;;4982560;28;20030;-68
2023/07/22 00:54:14;;;;;;;4.15;2.70;;;20.00;67.50;;;;;;4983016;28;20033;-67
2023/07/22 00:56:41;;;;;;;3.13;2.67;;;20.00;67.50;;;;;;4983691;28;20065;-67
2023/07/22 00:59:07;;;;;;;4.38;2.30;;;20.00;67.50;;;;;;4982007;28;20445;-65
2023/07/22 01:01:32;;;;;;;3.25;1.88;;;20.00;67.30;;;;;;4968836;28;20026;-66
2023/07/22 01:03:58;;;;;;;2.92;2.35;;;20.00;67.40;;;;;;4976122;28;20046;-68
2023/07/22 01:06:29;;;;;;;4.35;2.35;;;20.00;67.30;;;;;;4971358;28;20114;-67
2023/07/22 01:08:54;;;;;;;3.53;2.28;;;20.00;67.30;;;;;;4966369;28;20565;-66
2023/07/22 01:11:20;;;;;;;4.53;3.13;;;20.10;67.30;;;;;;4985179;28;20495;-67
2023/07/22 01:13:45;;;;;;;2.80;1.83;;;20.00;67.30;;;;;;4983935;28;20022;-67
2023/07/22 01:16:11;;;;;;;3.10;2.58;;;20.00;67.30;;;;;;4981112;28;20680;-67
2023/07/22 01:18:38;;;;;;;4.78;2.72;;;20.00;67.30;;;;;;4983242;28;20031;-65
2023/07/22 01:21:05;;;;;;;2.72;2.00;;;20.00;67.40;;;;;;4978261;28;20026;-66
2023/07/22 01:23:31;;;;;;;2.50;2.13;;;20.00;67.30;;;;;;4983592;28;20022;-68
2023/07/22 01:25:56;;;;;;;2.38;1.83;;;20.00;67.30;;;;;;4978410;28;20033;-66
2023/07/22 01:28:22;;;;;;;2.67;2.08;;;20.00;67.40;;;;;;4988865;28;20584;-67
2023/07/22 01:30:48;;;;;;;2.25;1.77;;;20.00;67.30;;;;;;4970115;28;20058;-67
2023/07/22 01:33:14;;;;;;;3.35;2.03;;;20.00;67.40;;;;;;4972927;28;20105;-67
2023/07/22 01:35:40;;;;;;;4.10;2.22;;;20.00;67.40;;;;;;4975870;28;20465;-68
2023/07/22 01:38:05;;;;;;;5.70;2.72;;;20.00;67.40;;;;;;4978533;28;20081;-66
2023/07/22 01:40:31;;;;;;;2.63;2.20;;;20.00;67.40;;;;;;4973037;28;20121;-67
2023/07/22 01:42:56;;;;;;;2.42;2.22;;;20.00;67.40;;;;;;4985322;28;20718;-67
2023/07/22 01:45:22;;;;;;;3.60;1.85;;;20.00;67.40;;;;;;4982684;28;20342;-65
2023/07/22 01:47:48;;;;;;;2.40;2.20;;;20.00;67.40;;;;;;4979480;28;20105;-67
2023/07/22 01:50:13;;;;;;;3.53;2.20;;;20.00;67.30;;;;;;4982565;28;20040;-68
2023/07/22 01:52:39;;;;;;;3.90;2.40;;;20.00;67.40;;;;;;4974514;28;20460;-67
2023/07/22 01:55:06;;;;;;;3.05;2.20;;;20.00;67.30;;;;;;4984213;28;20031;-65
2023/07/22 01:57:32;;;;;;;3.88;2.30;;;20.00;67.40;;;;;;4980069;28;20038;-65
2023/07/22 01:59:57;;;;;;;5.63;2.55;;;20.00;67.40;;;;;;4994746;28;20350;-64
2023/07/22 02:02:23;;;;;;;2.30;2.10;;;20.00;67.40;;;;;;4984167;28;20125;-67
2023/07/22 02:04:48;;;;;;;3.05;2.50;;;19.90;67.30;;;;;;4981821;28;20022;-66
2023/07/22 02:07:15;;;;;;;3.38;2.47;;;19.90;67.30;;;;;;4982895;28;20030;-68
2023/07/22 02:09:40;;;;;;;3.85;2.20;;;20.00;67.40;;;;;;4980103;28;20026;-67
2023/07/22 02:12:07;;;;;;;2.50;1.85;;;19.90;67.40;;;;;;4990258;28;20092;-66
2023/07/22 02:14:33;;;;;;;3.10;2.10;;;20.00;67.50;;;;;;4970256;28;20042;-65
2023/07/22 02:16:58;;;;;;;2.58;2.20;;;19.90;67.40;;;;;;4982426;28;20512;-66
2023/07/22 02:19:24;;;;;;;3.50;2.05;;;19.90;67.40;;;;;;4984662;28;20034;-67
2023/07/22 02:21:50;;;;;;;3.67;2.10;;;19.90;67.40;;;;;;4984726;28;20263;-67
2023/07/22 02:24:15;;;;;;;2.58;2.08;;;19.90;67.40;;;;;;4987940;28;20452;-65
2023/07/22 02:26:41;;;;;;;7.05;2.55;;;19.90;67.40;;;;;;4977210;28;20114;-67
2023/07/22 02:29:07;;;;;;;5.43;2.63;;;19.90;67.40;;;;;;4982091;28;20112;-66
2023/07/22 02:31:33;;;;;;;4.78;2.47;;;19.90;67.40;;;;;;4981027;28;20401;-67
2023/07/22 02:33:58;;;;;;;3.67;2.47;;;19.90;67.40;;;;;;4981929;28;20092;-65
2023/07/22 02:36:24;;;;;;;3.45;2.30;;;19.90;67.40;;;;;;4986749;28;20375;-65
2023/07/22 02:38:49;;;;;;;2.88;2.20;;;19.90;67.40;;;;;;4986509;28;20409;-67
2023/07/22 02:41:15;;;;;;;2.95;2.33;;;19.90;67.30;;;;;;4992636;28;20037;-67
2023/07/22 02:43:41;;;;;;;4.57;2.58;;;19.90;67.30;;;;;;4990633;28;20038;-66
2023/07/22 02:46:07;;;;;;;2.08;1.88;;;19.90;67.30;;;;;;4983630;28;20393;-65
2023/07/22 02:48:33;;;;;;;3.63;2.30;;;19.90;67.30;;;;;;4984760;28;20035;-65
2023/07/22 02:51:10;;;;;;;3.58;2.20;;;19.90;67.30;;;;;;4975719;28;20049;-66
2023/07/22 02:53:36;;;;;;;5.53;2.58;;;19.80;67.20;;;;;;4988598;28;20030;-65
2023/07/22 02:56:03;;;;;;;3.05;2.28;;;19.90;67.20;;;;;;4982433;28;20030;-65
2023/07/22 02:58:29;;;;;;;3.00;2.10;;;19.90;67.20;;;;;;4977243;28;20039;-65
2023/07/22 03:00:54;;;;;;;4.53;2.30;;;19.80;67.20;;;;;;4991638;28;20313;-67
2023/07/22 03:03:20;;;;;;;4.50;2.20;;;19.80;67.20;;;;;;4980800;28;20103;-66
2023/07/22 03:05:47;;;;;;;3.45;2.25;;;19.80;67.20;;;;;;4990699;28;20026;-66
2023/07/22 03:08:13;;;;;;;3.38;2.53;;;19.80;67.70;;;;;;4989035;28;20109;-67
2023/07/22 03:10:38;;;;;;;2.72;1.73;;;19.80;67.10;;;;;;4980335;28;20030;-66
2023/07/22 03:13:04;;;;;;;3.83;2.20;;;19.80;67.10;;;;;;4992902;28;20058;-67
2023/07/22 03:15:30;;;;;;;3.03;1.80;;;19.80;67.00;;;;;;4985319;28;20057;-66
2023/07/22 03:17:56;;;;;;;2.42;1.92;;;19.80;67.10;;;;;;4994665;28;20038;-66
2023/07/22 03:20:23;;;;;;;3.30;2.63;;;19.80;67.00;;;;;;4979208;28;20531;-65
2023/07/22 03:22:48;;;;;;;5.93;2.40;;;19.80;67.00;;;;;;4994350;28;20103;-66
2023/07/22 03:25:16;;;;;;;2.38;2.08;;;19.80;67.00;;;;;;4984551;28;20498;-65
2023/07/22 03:27:43;;;;;;;2.65;2.30;;;19.80;67.00;;;;;;4973301;28;20055;-66
2023/07/22 03:30:14;;;;;;;2.38;2.10;;;19.80;66.90;;;;;;4981676;28;20615;-66
2023/07/22 03:32:40;;;;;;;4.40;2.55;;;19.80;67.60;;;;;;4976835;28;20039;-67
2023/07/22 03:35:08;;;;;;;2.50;2.30;;;19.80;67.10;;;;;;4983710;28;20034;-66
2023/07/22 03:37:35;;;;;;;2.35;2.10;;;19.80;67.00;;;;;;4987272;28;20291;-66
2023/07/22 03:40:01;;;;;;;2.83;2.20;;;19.80;67.00;;;;;;4982289;28;20143;-66
2023/07/22 03:42:27;;;;;;;3.70;2.42;;;19.80;67.10;;;;;;4989095;28;20033;-68
2023/07/22 03:44:53;;;;;;;4.20;2.10;;;19.80;67.10;;;;;;4989437;28;20031;-67
2023/07/22 03:47:19;;;;;;;3.72;2.22;;;19.80;67.10;;;;;;4988662;28;20034;-64
2023/07/22 03:49:45;;;;;;;4.15;2.10;;;19.80;67.10;;;;;;4986000;28;20121;-65
2023/07/22 03:52:14;;;;;;;4.45;1.92;;;19.80;67.10;;;;;;4983489;28;20038;-66
2023/07/22 03:54:39;;;;;;;3.25;2.17;;;19.80;67.10;;;;;;4979858;28;20106;-65
2023/07/22 03:57:06;;;;;;;4.22;1.98;;;19.80;67.10;;;;;;4987997;28;20031;-66
2023/07/22 03:59:31;;;;;;;3.35;2.15;;;19.80;67.10;;;;;;4981627;28;20561;-67
2023/07/22 04:01:57;;;;;;;4.35;2.30;;;19.80;67.10;;;;;;4986315;28;20086;-67
2023/07/22 04:04:22;;;;;;;2.28;1.95;;;19.80;67.10;;;;;;4988442;28;20038;-66
2023/07/22 04:06:48;;;;;;;2.80;2.05;;;19.80;67.10;;;;;;4985616;28;20037;-67
2023/07/22 04:09:13;;;;;;;3.42;2.45;;;19.80;67.20;;;;;;4990853;28;20112;-67
2023/07/22 04:11:39;;;;;;;3.42;2.17;;;19.80;67.10;;;;;;4975507;28;20043;-65
2023/07/22 04:14:04;;;;;;;3.63;2.30;;;19.80;67.00;;;;;;4980464;28;20030;-67
2023/07/22 04:16:31;;;;;;;3.35;2.13;;;19.80;66.80;;;;;;4987778;28;20383;-67
2023/07/22 04:18:56;;;;;;;3.70;2.20;;;19.90;66.80;;;;;;4982656;28;20031;-67
2023/07/22 04:21:22;;;;;;;2.30;2.10;;;19.90;66.70;;;;;;4984161;28;20023;-67
2023/07/22 04:23:48;;;;;;;3.63;2.20;;;19.90;66.50;;;;;;4992302;28;20381;-66
2023/07/22 04:26:14;;;;;;;2.63;2.17;;;19.90;66.50;;;;;;5004491;28;20447;-67
2023/07/22 04:28:39;;;;;;;4.72;2.10;;;19.90;66.50;;;;;;4987302;28;20054;-66
2023/07/22 04:31:05;;;;;;;3.55;2.00;;;19.90;66.40;;;;;;4985545;28;20026;-66
2023/07/22 04:33:31;;;;;;;4.72;2.03;;;19.90;66.30;;;;;;4982077;28;20027;-64
2023/07/22 04:35:59;;;;;;;4.28;2.15;;;19.90;66.30;;;;;;4978922;28;20504;-67
2023/07/22 04:38:25;;;;;;;2.45;2.10;;;19.90;66.30;;;;;;4979156;28;20343;-67
2023/07/22 04:40:50;;;;;;;3.95;1.98;;;20.00;66.20;;;;;;4979123;28;20117;-66
2023/07/22 04:43:16;;;;;;;2.10;1.90;;;20.00;66.30;;;;;;4983662;28;20046;-66
2023/07/22 04:45:45;;;;;;;3.65;2.00;;;20.00;66.10;;;;;;4982690;28;20045;-63
2023/07/22 04:48:11;;;;;;;3.20;2.50;;;20.00;66.00;;;;;;4991575;28;20113;-63
2023/07/22 04:50:37;;;;;;;5.25;2.25;;;20.00;66.10;;;;;;4982038;28;20030;-66
2023/07/22 04:53:03;;;;;;;5.15;2.30;;;20.00;66.00;;;;;;5003342;28;20038;-66
2023/07/22 04:55:29;;;;;;;2.17;1.98;;;20.00;65.90;;;;;;5000037;28;20117;-64
2023/07/22 04:57:55;;;;;;;3.30;1.80;;;20.10;65.80;;;;;;5000867;28;20038;-67
2023/07/22 05:00:22;;;;;;;4.80;2.72;;;20.10;65.80;;;;;;4992017;28;20037;-65
2023/07/22 05:02:48;;;;;;;4.80;2.10;;;20.10;65.70;;;;;;4977622;28;20034;-67
2023/07/22 05:05:13;;;;;;;5.70;2.80;;;20.10;65.70;;;;;;4984351;28;20575;-66
2023/07/22 05:07:39;;;;;;;4.88;3.13;;;20.10;65.70;;;;;;4985322;28;20034;-65
2023/07/22 05:10:07;;;;;;;5.93;3.20;;;20.10;65.80;;;;;;4992093;28;20398;-65
2023/07/22 05:12:32;;;;;;;4.15;3.30;;;20.10;65.60;;;;;;4976029;28;20045;-65
2023/07/22 05:14:58;;;;;;;6.00;3.42;;;20.20;65.60;;;;;;4975338;28;20034;-64
2023/07/22 05:17:25;;;;;;;6.38;3.30;;;20.20;65.50;;;;;;4981098;28;20034;-66
2023/07/22 05:19:50;;;;;;;4.80;3.50;;;20.20;65.50;;;;;;4952702;28;20023;-66
2023/07/22 05:22:16;;;;;;;3.85;2.70;;;20.20;65.50;;;;;;4953428;28;20030;-67
2023/07/22 05:24:42;;;;;;;4.72;3.20;;;20.20;65.40;;;;;;4948632;28;20046;-67
2023/07/22 05:27:07;;;;;;;6.40;3.05;;;20.20;65.40;;;;;;4949426;28;20518;-66
2023/07/22 05:29:33;;;;;;;3.78;2.60;;;20.20;65.30;;;;;;4953044;28;20034;-65
2023/07/22 05:31:58;;;;;;;3.97;2.88;;;20.30;65.40;;;;;;4971003;28;20197;-67
2023/07/22 05:34:24;;;;;;;4.20;2.50;;;20.20;65.40;;;;;;4955159;28;20105;-65
2023/07/22 05:36:49;;;;;;;3.97;2.42;;;20.20;65.30;;;;;;4969362;28;20040;-66
2023/07/22 05:39:17;;;;;;;4.10;2.42;;;20.30;65.20;;;;;;4973051;28;20350;-66
2023/07/22 05:41:43;;;;;;;5.15;3.80;;;20.30;65.30;;;;;;4975910;28;20029;-65
2023/07/22 05:44:08;;;;;;;3.90;2.50;;;20.20;65.20;;;;;;4973992;28;20413;-65
2023/07/22 05:46:34;;;;;;;3.50;3.03;;;20.20;65.20;;;;;;4977690;28;20030;-66
2023/07/22 05:48:59;;;;;;;3.20;2.33;;;20.30;65.10;;;;;;4968714;28;20414;-66
2023/07/22 05:51:25;;;;;;;5.15;2.30;;;20.30;65.10;;;;;;4972979;28;20386;-66
2023/07/22 05:53:51;;;;;;;2.85;2.05;;;20.30;65.20;;;;;;4972650;28;20570;-65
2023/07/22 05:56:16;;;;;;;5.22;2.88;;;20.30;65.20;;;;;;4985258;28;20330;-64
2023/07/22 05:58:42;;;;;;;3.90;2.50;;;20.20;65.10;;;;;;4972787;28;20100;-64
2023/07/22 06:01:07;;;;;;;3.00;2.80;;;20.20;65.10;;;;;;4974586;28;20098;-66
2023/07/22 06:03:33;;;;;;;5.65;2.58;;;20.30;65.20;;;;;;4965832;28;20110;-65
2023/07/22 06:05:58;;;;;;;3.85;2.95;;;20.30;65.10;;;;;;4975139;28;20039;-65
2023/07/22 06:08:25;;;;;;;4.82;3.00;;;20.30;65.20;;;;;;4978049;28;20081;-65
2023/07/22 06:10:51;;;;;;;6.65;3.58;;;20.20;65.30;;;;;;4973462;28;20601;-64
2023/07/22 06:13:17;;;;;;;3.85;2.70;;;20.20;65.10;;;;;;4967516;28;20394;-65
2023/07/22 06:15:42;;;;;;;3.55;3.05;;;20.20;65.10;;;;;;4974922;28;20093;-65
2023/07/22 06:18:08;;;;;;;6.32;3.22;;;20.20;65.00;;;;;;4967749;28;20562;-65
2023/07/22 06:20:34;;;;;;;5.85;2.90;;;20.20;65.10;;;;;;4980553;28;20358;-65
2023/07/22 06:23:00;;;;;;;3.38;2.55;;;20.20;65.10;;;;;;4971190;28;20502;-67
2023/07/22 06:25:26;;;;;;;5.57;3.65;;;20.20;65.00;;;;;;4968947;28;20263;-67
2023/07/22 06:27:53;;;;;;;4.10;3.55;;;20.20;65.10;;;;;;4993224;28;20687;-65
2023/07/22 06:30:19;;;;;;;4.95;3.53;;;20.20;65.00;;;;;;4985737;28;20462;-65
2023/07/22 06:32:45;;;;;;;7.40;3.78;;;20.10;64.70;;;;;;4984522;28;20125;-65
2023/07/22 06:35:10;;;;;;;3.65;3.30;;;20.10;64.80;;;;;;4986337;28;20309;-65
2023/07/22 06:37:36;;;;;;;4.65;3.78;;;20.10;64.70;;;;;;4982131;28;20061;-65
2023/07/22 06:40:03;;;;;;;4.05;3.65;;;20.10;64.70;;;;;;4981458;28;20452;-66
2023/07/22 06:42:29;;;;;;;4.15;3.75;;;20.10;64.60;;;;;;4989052;28;20084;-66
2023/07/22 06:44:54;;;;;;;6.72;4.05;;;20.20;64.50;;;;;;4978911;28;20038;-64
2023/07/22 06:47:20;;;;;;;4.88;4.18;;;20.20;64.70;;;;;;4988289;28;20048;-63
2023/07/22 06:49:45;;;;;;;5.47;4.10;;;20.10;64.60;;;;;;4982765;28;20449;-64
2023/07/22 06:52:11;;;;;;;4.18;3.78;;;20.20;64.50;;;;;;4984308;28;20722;-67
2023/07/22 06:54:37;;;;;;;4.65;3.85;;;20.20;64.40;;;;;;4975996;28;20030;-65
2023/07/22 06:57:03;;;;;;;4.40;4.00;;;20.20;64.20;;;;;;4985642;28;20556;-67
2023/07/22 06:59:28;;;;;;;4.20;3.80;;;20.20;64.40;;;;;;4985833;28;20023;-66
2023/07/22 07:01:54;;;;;;;7.13;4.50;;;20.20;64.60;;;;;;4985235;28;21372;-67
2023/07/22 07:04:20;;;;;;;9.20;4.88;;;20.10;64.50;;;;;;4980055;28;20065;-67
2023/07/22 07:06:46;;;;;;;8.48;4.35;;;20.10;64.50;;;;;;4984152;28;20050;-64
2023/07/22 07:09:12;;;;;;;6.93;4.20;;;20.10;64.30;;;;;;4977285;28;20559;-67
2023/07/22 07:11:37;;;;;;;5.50;4.50;;;20.10;64.10;;;;;;4974273;28;20228;-64
2023/07/22 07:14:03;;;;;;;8.23;4.82;;;20.10;64.10;;;;;;4971004;28;20118;-66
2023/07/22 07:16:31;;;;;;;6.55;4.68;;;20.10;64.20;;;;;;4977123;28;20057;-65
2023/07/22 07:18:58;;;;;;;5.57;4.78;;;20.10;64.30;;;;;;4983269;28;20043;-66
2023/07/22 07:21:24;;;;;;;10.65;5.40;;;20.10;64.40;;;;;;4965145;28;20030;-67
2023/07/22 07:23:51;;;;;;;7.18;4.97;;;20.10;64.30;;;;;;4977838;28;20359;-66
2023/07/22 07:26:17;;;;;;;6.75;5.07;;;20.00;63.90;;;;;;4979865;28;20054;-66
2023/07/22 07:28:43;;;;;;;9.10;5.45;;;20.00;63.80;;;;;;4966574;28;20486;-66
2023/07/22 07:31:08;;;;;;;7.80;5.00;;;20.00;63.60;;;;;;4964108;28;20023;-66
2023/07/22 07:33:34;;;;;;;6.05;5.18;;;20.00;63.50;;;;;;4965643;28;20183;-66
2023/07/22 07:36:00;;;;;;;6.25;5.63;;;20.00;63.40;;;;;;4977012;28;20030;-67
2023/07/22 07:38:25;;;;;;;5.93;4.82;;;20.00;63.40;;;;;;4962409;28;20023;-67
2023/07/22 07:40:59;;;;;;;6.45;5.10;;;20.10;63.50;;;;;;4972598;28;20076;-65
2023/07/22 07:43:25;;;;;;;7.32;4.57;;;20.00;63.60;;;;;;4974283;28;20034;-65
2023/07/22 07:46:10;;;;;;;5.32;4.78;;;20.10;63.60;;;;;;4987727;28;20425;-64
2023/07/22 07:48:36;;;;;;;5.78;5.18;;;20.00;63.70;;;;;;4963456;28;20039;-66
2023/07/22 07:51:03;;;;;;;6.90;5.00;;;20.00;63.90;;;;;;4964044;28;20029;-66
2023/07/22 07:53:28;;;;;;;6.47;4.97;;;20.00;63.90;;;;;;4982678;28;20022;-65
2023/07/22 07:55:54;;;;;;;5.97;5.03;;;20.00;63.70;;;;;;4978357;28;20050;-65
2023/07/22 07:58:19;;;;;;;6.05;5.45;;;20.00;63.50;;;;;;4969076;28;20158;-66
2023/07/22 08:00:45;;;;;;;6.00;5.13;;;20.00;64.20;;;;;;4974483;28;20058;-66
2023/07/22 08:03:10;;;;;;;6.38;4.78;;;20.00;63.60;;;;;;4969682;28;20027;-66
2023/07/22 08:05:36;;;;;;;6.65;4.80;;;20.10;63.60;;;;;;4965684;28;20560;-65
2023/07/22 08:08:01;;;;;;;5.28;4.45;;;20.00;63.90;;;;;;4971139;28;20468;-67
2023/07/22 08:10:27;;;;;;;7.15;4.60;;;20.00;63.80;;;;;;4983679;28;20381;-65
2023/07/22 08:12:52;;;;;;;5.72;4.93;;;20.10;63.90;;;;;;4979526;28;20034;-67
2023/07/22 08:15:18;;;;;;;5.18;4.68;;;20.00;63.90;;;;;;4985215;28;20027;-65
2023/07/22 08:17:43;;;;;;;6.35;5.20;;;20.00;63.80;;;;;;4966889;28;20553;-66
2023/07/22 08:20:10;;;;;;;5.63;4.50;;;20.00;63.90;;;;;;4982674;28;20031;-66
2023/07/22 08:22:35;;;;;;;5.35;4.45;;;20.00;63.80;;;;;;4972963;28;20058;-67
2023/07/22 08:25:01;;;;;;;6.65;5.28;;;20.00;63.60;;;;;;4966970;28;20044;-66
2023/07/22 08:27:27;;;;;;;5.40;4.30;;;20.10;63.70;;;;;;4985553;28;20125;-68
2023/07/22 08:29:52;;;;;;;5.25;4.28;;;20.10;63.70;;;;;;4976760;28;20036;-67
2023/07/22 08:32:18;;;;;;;6.13;4.80;;;20.10;63.50;;;;;;4976700;28;20342;-64
2023/07/22 08:34:43;;;;;;;5.50;4.82;;;20.10;63.40;;;;;;4983262;28;20042;-67
2023/07/22 08:37:09;;;;;;;4.65;4.20;;;20.10;63.30;;;;;;4978485;28;20031;-67
2023/07/22 08:39:34;;;;;;;5.40;4.25;;;20.10;63.30;;;;;;4981628;28;20450;-67
2023/07/22 08:42:04;;;;;;;5.43;4.63;;;20.10;63.40;;;;;;4977069;28;20117;-66
2023/07/22 08:44:35;;;;;;;5.22;4.10;;;20.10;63.50;;;;;;4969661;28;20121;-68
2023/07/22 08:47:03;;;;;;;4.40;4.00;;;20.10;63.40;;;;;;4979228;28;20026;-65
2023/07/22 08:49:30;;;;;;;5.15;4.65;;;20.10;63.50;;;;;;4985405;28;20042;-68
2023/07/22 08:51:57;;;;;;;4.57;3.97;;;20.10;63.80;;;;;;4970548;28;20077;-67
2023/07/22 08:54:23;;;;;;;5.35;3.97;;;20.00;63.60;;;;;;4979782;28;20034;-67
2023/07/22 08:56:50;;;;;;;4.63;4.03;;;20.10;63.40;;;;;;4973944;28;20062;-67
2023/07/22 08:59:20;;;;;;;5.63;4.22;;;20.10;63.60;;;;;;4977241;28;20031;-67
2023/07/22 09:01:47;;;;;;;5.07;4.47;;;20.10;63.70;;;;;;4983289;28;20034;-68
2023/07/22 09:04:13;;;;;;;5.57;4.47;;;20.00;63.50;;;;;;4983130;28;20113;-68
2023/07/22 09:06:41;;;;;;;6.03;4.32;;;20.10;63.40;;;;;;4979303;28;20026;-66
2023/07/22 09:09:08;;;;;;;5.15;4.05;;;20.10;63.10;;;;;;4980598;28;20030;-65
2023/07/22 09:11:34;;;;;;;5.00;4.50;;;20.10;63.10;;;;;;4977513;28;20039;-67
2023/07/22 09:14:02;;;;;;;4.50;4.10;;;20.10;62.70;;;;;;4961065;28;20041;-66
2023/07/22 09:16:29;;;;;;;4.32;3.92;;;20.10;62.80;;;;;;4975841;28;20483;-66
2023/07/22 09:18:57;;;;;;;5.15;3.70;;;20.10;63.20;;;;;;4981758;28;20054;-67
2023/07/22 09:21:22;;;;;;;6.00;3.90;;;20.10;63.30;;;;;;4982524;28;20035;-66
2023/07/22 09:23:48;;;;;;;4.55;3.95;;;20.10;63.30;;;;;;4989586;28;20033;-65
2023/07/22 09:26:18;;;;;;;4.53;4.13;;;20.10;63.10;;;;;;4983383;28;20115;-66
2023/07/22 09:28:48;;;;;;;5.13;4.28;;;20.10;63.10;;;;;;4979865;28;20110;-66
2023/07/22 09:31:14;;;;;;;4.90;4.28;;;20.10;63.20;;;;;;4986843;28;20131;-67
2023/07/22 09:33:39;;;;;;;4.20;3.78;;;20.10;63.10;;;;;;4976289;28;20066;-65
2023/07/22 09:36:05;;;;;;;4.55;3.83;;;20.10;63.00;;;;;;4967881;28;20127;-64
2023/07/22 09:38:30;;;;;;;3.45;3.10;;;20.10;62.90;;;;;;4982683;28;20566;-67
2023/07/22 09:40:56;;;;;;;3.85;3.47;;;20.10;62.80;;;;;;4969871;28;20033;-67
2023/07/22 09:43:23;;;;;;;5.47;3.53;;;20.10;62.50;;;;;;4980719;28;20023;-68
2023/07/22 09:45:49;;;;;;;4.20;3.60;;;20.10;62.70;;;;;;4986236;28;20517;-67
2023/07/22 09:48:14;;;;;;;3.50;3.20;;;20.00;62.40;;;;;;4981138;28;20275;-65
2023/07/22 09:50:40;;;;;;;3.30;3.00;;;20.10;62.30;;;;;;4981479;28;20030;-67
2023/07/22 09:53:06;;;;;;;3.88;3.50;;;20.10;60.40;;;;;;4974549;28;20492;-68
2023/07/22 09:55:32;;;;;;;3.53;3.22;;;20.10;61.30;;;;;;4981961;28;20502;-67
2023/07/22 09:58:05;;;;;;;3.40;3.10;;;20.10;61.50;;;;;;4978771;28;20114;-66
2023/07/22 10:00:34;;;;;;;3.70;3.38;;;20.10;61.80;;;;;;4978083;28;20063;-67
2023/07/22 10:03:02;;;;;;;4.00;3.42;;;20.10;61.90;;;;;;4979802;28;20045;-66
2023/07/22 10:05:29;;;;;;;3.83;3.42;;;20.00;61.80;;;;;;4969200;28;20041;-64
2023/07/22 10:07:56;;;;;;;3.40;3.10;;;20.10;61.80;;;;;;4980181;28;20125;-65
2023/07/22 10:10:37;;;;;;;4.00;3.03;;;20.10;61.70;;;;;;4976744;28;20058;-66
2023/07/22 10:13:03;;;;;;;4.10;3.20;;;20.10;61.40;;;;;;4986220;28;20450;-66
2023/07/22 10:15:30;;;;;;;3.58;3.28;;;20.10;61.40;;;;;;4979833;28;20110;-66
2023/07/22 10:17:56;;;;;;;3.25;2.92;;;20.10;61.30;;;;;;4980846;28;20042;-68
2023/07/22 10:20:23;;;;;;;3.47;3.17;;;20.10;61.50;;;;;;4978249;28;20105;-67
2023/07/22 10:22:50;;;;;;;3.35;3.05;;;20.10;61.80;;;;;;4983640;28;20031;-66
2023/07/22 10:25:20;;;;;;;3.90;3.15;;;20.10;61.60;;;;;;4980128;28;20197;-67
2023/07/22 10:27:48;;;;;;;3.85;3.00;;;20.10;61.40;;;;;;4980828;28;20031;-65
2023/07/22 10:30:15;;;;;;;2.88;2.58;;;20.10;61.50;;;;;;4985889;28;20106;-66
2023/07/22 10:32:46;;;;;;;3.22;2.95;;;20.10;61.50;;;;;;4974295;28;20031;-67
2023/07/22 10:35:37;;;;;;;3.05;2.60;;;20.10;61.40;;;;;;4976832;28;20422;-68
2023/07/22 10:38:14;;;;;;;4.95;2.80;;;20.10;61.50;;;;;;4967163;28;20511;-68
2023/07/22 10:40:54;;;;;;;3.55;3.25;;;20.10;61.60;;;;;;4990283;28;20081;-67
2023/07/22 10:43:26;;;;;;;3.60;2.70;;;20.10;61.80;;;;;;4973022;28;20050;-67
2023/07/22 10:46:13;;;;;;;3.25;2.95;;;20.10;61.70;;;;;;4978031;28;20129;-66
2023/07/22 10:48:41;;;;;;;3.30;3.00;;;20.10;61.70;;;;;;4975729;28;20039;-67
2023/07/22 10:51:11;;;;;;;3.22;2.92;;;20.10;61.80;;;;;;4974307;28;20026;-67
2023/07/22 10:53:55;;;;;;;5.20;3.72;;;20.10;61.60;;;;;;4986297;28;20098;-68
2023/07/22 10:56:24;;;;;;;3.47;3.17;;;20.10;61.50;;;;;;4970462;28;20457;-67
2023/07/22 10:58:52;;;;;;;3.42;2.97;;;20.10;61.30;;;;;;4985900;28;20462;-67
2023/07/22 11:01:31;;;;;;;3.15;2.85;;;20.10;61.40;;;;;;4986551;28;20037;-65
2023/07/22 11:04:35;;;;;;;3.35;3.03;;;20.10;61.50;;;;;;4975371;28;20066;-67
2023/07/22 11:07:05;;;;;;;3.95;3.22;;;20.10;61.20;;;;;;4970122;28;20401;-65
2023/07/22 11:09:34;;;;;;;3.13;2.83;;;20.10;61.00;;;;;;4985234;28;20023;-66
2023/07/22 11:12:05;;;;;;;3.38;2.80;;;20.10;60.90;;;;;;4990591;28;20037;-67
2023/07/22 11:14:33;;;;;;;4.57;3.03;;;20.10;60.80;;;;;;4980707;28;20050;-65
2023/07/22 11:17:01;;;;;;;3.47;3.17;;;20.10;61.40;;;;;;4986284;28;20039;-67
2023/07/22 11:19:27;;;;;;;4.13;2.88;;;20.20;60.80;;;;;;4991305;28;20711;-67
2023/07/22 11:21:54;;;;;;;2.60;2.40;;;20.10;60.80;;;;;;4993229;28;20033;-67
2023/07/22 11:24:20;;;;;;;3.03;2.70;;;20.10;60.90;;;;;;5013467;28;20038;-65
2023/07/22 11:26:47;;;;;;;3.50;2.90;;;20.10;60.70;;;;;;4986295;28;20501;-67
2023/07/22 11:29:14;;;;;;;3.63;2.55;;;20.20;60.60;;;;;;4975408;28;20034;-67
2023/07/22 11:31:42;;;;;;;3.15;2.85;;;20.20;60.10;;;;;;4982156;28;20042;-65
2023/07/22 11:34:09;;;;;;;2.97;2.70;;;20.20;60.50;;;;;;4983353;28;20026;-67
2023/07/22 11:36:35;;;;;;;3.30;3.00;;;20.20;60.00;;;;;;4989020;28;20023;-67
2023/07/22 11:39:09;;;;;;;3.17;2.85;;;20.20;59.90;;;;;;4976008;28;20049;-66
2023/07/22 11:41:36;;;;;;;2.85;2.65;;;20.20;60.00;;;;;;4986692;28;20039;-67
2023/07/22 11:44:08;;;;;;;3.60;3.30;;;20.20;60.30;;;;;;4972831;28;20042;-66
2023/07/22 11:46:35;;;;;;;3.17;2.83;;;20.20;60.10;;;;;;4985132;28;20034;-66
2023/07/22 11:49:00;;;;;;;2.70;2.50;;;20.10;59.80;;;;;;4978535;28;20044;-67
2023/07/22 11:51:26;;;;;;;2.95;2.65;;;20.20;60.40;;;;;;4981198;28;20030;-68
2023/07/22 11:53:54;;;;;;;3.55;3.00;;;20.10;60.80;;;;;;4992508;28;20037;-67
2023/07/22 11:56:25;;;;;;;3.10;2.80;;;20.10;60.70;;;;;;4996753;28;20117;-68
2023/07/22 11:58:52;;;;;;;3.10;2.80;;;20.10;61.00;;;;;;4987600;28;20077;-66
2023/07/22 12:01:18;;;;;;;2.95;2.63;;;20.10;61.00;;;;;;4981799;28;20026;-67
2023/07/22 12:03:44;;;;;;;2.80;2.60;;;20.10;61.20;;;;;;4979762;28;20026;-66
2023/07/22 12:06:10;;;;;;;3.85;2.78;;;20.10;61.40;;;;;;4977440;28;20030;-67
2023/07/22 12:08:42;;;;;;;3.17;2.55;;;20.10;61.30;;;;;;4982833;28;20022;-67
2023/07/22 12:11:08;;;;;;;3.60;3.30;;;20.10;61.20;;;;;;4976033;28;20026;-68
2023/07/22 12:13:37;;;;;;;3.45;3.15;;;20.10;61.20;;;;;;4980666;28;20035;-67
2023/07/22 12:16:07;;;;;;;3.10;2.80;;;20.10;61.30;;;;;;4997216;28;20034;-68
2023/07/22 12:18:45;;;;;;;3.50;3.20;;;20.10;61.20;;;;;;4983671;28;20133;-67
2023/07/22 12:21:11;;;;;;;2.78;2.58;;;20.10;61.20;;;;;;4981162;28;20113;-67
2023/07/22 12:23:37;;;;;;;3.53;3.22;;;20.10;61.30;;;;;;4981421;28;20026;-66
2023/07/22 12:26:04;;;;;;;3.15;2.80;;;20.10;61.20;;;;;;4980169;28;20181;-64
2023/07/22 12:28:30;;;;;;;3.63;3.33;;;20.10;61.10;;;;;;4979254;28;20024;-67
2023/07/22 12:30:57;;;;;;;3.47;3.17;;;20.10;61.00;;;;;;4991090;28;20099;-62
2023/07/22 12:33:24;;;;;;;3.30;3.00;;;20.10;60.70;;;;;;4986418;28;20064;-67
2023/07/22 12:35:49;;;;;;;3.30;3.00;;;20.10;60.70;;;;;;4978443;28;20031;-65
2023/07/22 12:38:15;;;;;;;3.30;2.97;;;20.10;60.80;;;;;;4983314;28;20057;-67
2023/07/22 12:40:41;;;;;;;3.95;3.13;;;20.10;60.80;;;;;;4979649;28;20031;-67
2023/07/22 12:43:07;;;;;;;3.17;2.88;;;20.10;60.80;;;;;;4985692;28;20041;-66
2023/07/22 12:45:33;;;;;;;3.95;3.30;;;20.10;60.60;;;;;;4981570;28;20040;-66